Time;durP1;ratioP1;P1;durP2;ratioP2;P2;SDS_P1;SDS_P2;PMS_P1;PMS_P2;Temp;Humidity;BMP_temperature;BMP_pressure;BME280_temperature;BME280_humidity;BME280_pressure;Samples;Min_cycle;Max_cycle;Signal;HPM_P1;HPM_P2
2021/04/05 00:01:18;;;;;;;39.33;21.40;;;;;;;5.16;67.67;100202.38;5052560;28;20213;-65
2021/04/05 00:03:45;;;;;;;45.43;22.70;;;;;;;5.17;67.69;100201.44;5051234;28;20233;-65
2021/04/05 00:06:11;;;;;;;45.83;22.77;;;;;;;5.17;67.24;100189.09;5052555;28;20300;-66
2021/04/05 00:08:37;;;;;;;42.63;21.30;;;;;;;5.15;67.47;100183.03;5051445;28;20212;-67
2021/04/05 00:11:04;;;;;;;46.90;22.80;;;;;;;5.14;67.07;100183.09;5051886;28;20308;-66
2021/04/05 00:13:34;;;;;;;42.73;21.73;;;;;;;5.13;67.04;100181.41;5051538;28;20222;-65
2021/04/05 00:16:00;;;;;;;37.37;20.77;;;;;;;5.13;67.80;100155.00;5051321;28;20202;-66
2021/04/05 00:18:27;;;;;;;42.33;21.80;;;;;;;5.12;67.31;100148.88;5052163;28;20670;-66
2021/04/05 00:20:56;;;;;;;44.13;21.27;;;;;;;5.13;67.17;100147.06;5052675;28;20198;-65
2021/04/05 00:23:22;;;;;;;37.47;19.20;;;;;;;5.11;67.77;100126.03;5051552;28;20734;-65
2021/04/05 00:25:49;;;;;;;42.53;21.33;;;;;;;5.11;68.00;100098.78;5052582;28;20584;-66
2021/04/05 00:28:16;;;;;;;37.63;20.93;;;;;;;5.11;67.51;100101.44;5052335;28;20251;-68
2021/04/05 00:30:42;;;;;;;36.73;18.97;;;;;;;5.11;67.47;100099.63;5051469;28;20598;-65
2021/04/05 00:33:10;;;;;;;38.33;21.27;;;;;;;5.13;67.91;100081.09;5052013;28;20279;-66
2021/04/05 00:35:39;;;;;;;36.90;20.07;;;;;;;5.14;67.97;100077.53;5051824;28;20201;-65
2021/04/05 00:38:08;;;;;;;37.50;19.80;;;;;;;5.14;67.83;100073.09;5051863;28;20568;-66
2021/04/05 00:40:36;;;;;;;39.57;20.30;;;;;;;5.16;68.00;100055.41;5052666;28;20216;-67
2021/04/05 00:43:04;;;;;;;39.80;19.93;;;;;;;5.15;67.44;100052.84;5052115;28;20252;-66
2021/04/05 00:45:32;;;;;;;37.70;19.73;;;;;;;5.15;68.29;100039.63;5052216;28;20206;-66
2021/04/05 00:47:58;;;;;;;33.00;19.33;;;;;;;5.18;67.67;100028.94;5052168;28;20206;-67
2021/04/05 00:50:33;;;;;;;38.73;18.73;;;;;;;5.17;68.22;100020.16;5051933;28;20201;-66
2021/04/05 00:53:01;;;;;;;34.07;17.67;;;;;;;5.19;67.59;100002.44;5051708;28;20217;-66
2021/04/05 00:55:28;;;;;;;37.37;19.70;;;;;;;5.20;67.68;100008.56;5051350;28;20239;-66
2021/04/05 00:57:56;;;;;;;35.03;18.90;;;;;;;5.22;67.95;100007.53;5052104;28;20205;-65
2021/04/05 01:00:41;;;;;;;36.13;19.70;;;;;;;5.24;67.87;100004.84;5051857;28;20213;-66
2021/04/05 01:03:09;;;;;;;37.10;19.80;;;;;;;5.26;68.06;99996.84;5046050;28;20229;-66
2021/04/05 01:05:35;;;;;;;32.93;17.97;;;;;;;5.26;67.48;99994.19;5050956;28;20208;-68
2021/04/05 01:08:03;;;;;;;32.63;18.30;;;;;;;5.26;68.10;99997.69;5051920;28;20205;-66
2021/04/05 01:10:29;;;;;;;38.73;20.97;;;;;;;5.26;67.71;99989.78;5051311;28;20212;-66
2021/04/05 01:12:55;;;;;;;36.83;20.33;;;;;;;5.25;67.59;99972.22;5047315;28;20236;-67
2021/04/05 01:15:21;;;;;;;37.60;19.37;;;;;;;5.26;67.44;99963.38;5047234;28;20213;-66
2021/04/05 01:17:49;;;;;;;37.10;19.50;;;;;;;5.26;67.84;99955.44;5051447;28;20682;-66
2021/04/05 01:20:17;;;;;;;40.03;20.23;;;;;;;5.28;67.92;99948.31;5051233;28;20216;-66
2021/04/05 01:22:45;;;;;;;40.50;21.63;;;;;;;5.28;68.06;99924.53;5048789;28;20320;-66
2021/04/05 01:25:14;;;;;;;39.47;20.90;;;;;;;5.28;67.53;99921.91;5051186;28;20202;-66
2021/04/05 01:27:41;;;;;;;37.67;20.43;;;;;;;5.28;68.18;99911.34;5051080;28;20213;-66
2021/04/05 01:30:10;;;;;;;37.97;19.67;;;;;;;5.29;67.45;99901.63;5051069;28;20212;-66
2021/04/05 01:32:36;;;;;;;36.57;19.50;;;;;;;5.30;67.42;99904.19;5050622;28;20226;-67
2021/04/05 01:35:02;;;;;;;41.93;19.60;;;;;;;5.31;67.77;99902.41;5051188;28;20214;-66
2021/04/05 01:37:28;;;;;;;37.40;19.67;;;;;;;5.31;67.75;99890.06;5051039;28;20618;-65
2021/04/05 01:39:55;;;;;;;37.20;20.87;;;;;;;5.32;67.54;99883.84;5047255;28;20297;-67
2021/04/05 01:42:21;;;;;;;34.10;19.90;;;;;;;5.34;67.21;99875.84;5049824;28;20589;-66
2021/04/05 01:44:48;;;;;;;34.77;20.93;;;;;;;5.34;67.31;99873.22;5053870;28;20296;-66
2021/04/05 01:47:14;;;;;;;36.40;20.93;;;;;;;5.34;67.43;99868.78;5054318;28;20205;-66
2021/04/05 01:49:40;;;;;;;35.23;20.23;;;;;;;5.33;67.72;99866.22;5049288;28;20205;-66
2021/04/05 01:52:12;;;;;;;38.13;19.87;;;;;;;5.31;67.61;99855.75;5050655;28;20254;-66
2021/04/05 01:54:38;;;;;;;38.30;21.17;;;;;;;5.33;67.62;99840.66;5050436;28;20682;-66
2021/04/05 01:57:08;;;;;;;35.93;20.80;;;;;;;5.33;67.28;99827.47;5048496;28;20250;-67
2021/04/05 01:59:34;;;;;;;33.17;18.30;;;;;;;5.36;67.32;99824.66;5049695;28;20206;-66
2021/04/05 02:02:01;;;;;;;37.73;21.03;;;;;;;5.36;67.09;99806.19;5050121;28;20685;-66
2021/04/05 02:04:27;;;;;;;33.90;19.07;;;;;;;5.38;67.14;99806.94;5054940;28;20225;-66
2021/04/05 02:06:53;;;;;;;35.90;18.93;;;;;;;5.38;67.30;99795.50;5056505;28;20202;-65
2021/04/05 02:09:19;;;;;;;31.40;15.23;;;;;;;5.42;67.43;99791.75;5050841;28;20628;-65
2021/04/05 02:11:46;;;;;;;34.70;18.70;;;;;;;5.43;67.59;99780.28;5049668;28;20198;-65
2021/04/05 02:14:13;;;;;;;34.53;18.93;;;;;;;5.43;67.47;99767.06;5050359;28;20233;-67
2021/04/05 02:16:44;;;;;;;31.87;17.07;;;;;;;5.46;67.44;99775.69;5049871;28;20210;-66
2021/04/05 02:19:14;;;;;;;33.13;18.30;;;;;;;5.45;67.22;99766.03;5050245;28;20205;-67
2021/04/05 02:21:40;;;;;;;33.60;18.93;;;;;;;5.46;67.02;99765.13;5054091;28;20200;-66
2021/04/05 02:24:08;;;;;;;33.17;16.47;;;;;;;5.50;67.58;99768.44;5055342;28;20232;-65
2021/04/05 02:26:36;;;;;;;29.93;17.17;;;;;;;5.49;67.65;99757.03;5050002;28;20228;-66
2021/04/05 02:29:04;;;;;;;30.40;18.10;;;;;;;5.50;67.08;99745.53;5050723;28;20205;-66
2021/04/05 02:31:34;;;;;;;36.90;19.30;;;;;;;5.54;67.30;99744.41;5049532;28;20667;-65
2021/04/05 02:34:00;;;;;;;29.73;17.63;;;;;;;5.55;67.29;99722.31;5049781;28;20228;-66
2021/04/05 02:36:28;;;;;;;31.60;18.10;;;;;;;5.56;67.47;99715.25;5049594;28;20205;-66
2021/04/05 02:38:56;;;;;;;30.27;16.20;;;;;;;5.55;67.55;99722.31;5050027;28;20575;-66
2021/04/05 02:41:23;;;;;;;27.93;16.83;;;;;;;5.57;67.38;99716.94;5049124;28;20221;-65
2021/04/05 02:43:52;;;;;;;33.07;17.17;;;;;;;5.57;67.27;99722.22;5049707;28;20233;-66
2021/04/05 02:46:21;;;;;;;33.83;18.47;;;;;;;5.57;67.13;99714.31;5049722;28;20867;-67
2021/04/05 02:48:49;;;;;;;32.30;17.77;;;;;;;5.58;67.61;99703.66;5049888;28;20240;-66
2021/04/05 02:51:16;;;;;;;33.10;18.63;;;;;;;5.58;67.63;99719.50;5049727;28;20593;-66
2021/04/05 02:53:44;;;;;;;39.30;17.13;;;;;;;5.58;67.46;99693.09;5048924;28;20221;-66
2021/04/05 02:56:11;;;;;;;36.17;18.23;;;;;;;5.57;67.56;99682.63;5049861;28;20216;-65
2021/04/05 02:58:40;;;;;;;29.53;16.20;;;;;;;5.57;67.68;99675.53;5049459;28;20201;-66
2021/04/05 03:01:07;;;;;;;31.20;17.73;;;;;;;5.59;67.53;99664.88;5052645;28;20205;-66
2021/04/05 03:03:34;;;;;;;28.73;16.87;;;;;;;5.57;67.95;99646.50;5058960;28;20241;-65
2021/04/05 03:06:01;;;;;;;33.70;17.07;;;;;;;5.60;67.53;99645.47;5050204;28;20235;-66
2021/04/05 03:08:27;;;;;;;34.87;18.30;;;;;;;5.61;68.05;99639.25;5049691;28;20205;-65
2021/04/05 03:10:55;;;;;;;37.93;17.83;;;;;;;5.61;67.78;99636.59;5049193;28;20625;-65
2021/04/05 03:13:22;;;;;;;31.63;17.17;;;;;;;5.64;67.71;99646.13;5049268;28;20230;-65
2021/04/05 03:15:48;;;;;;;32.57;17.67;;;;;;;5.67;67.92;99623.03;5046292;28;20209;-66
2021/04/05 03:18:16;;;;;;;32.13;18.23;;;;;;;5.69;67.79;99642.28;5049980;28;20627;-66
2021/04/05 03:20:43;;;;;;;27.57;14.47;;;;;;;5.72;68.39;99642.13;5049124;28;20205;-65
2021/04/05 03:23:10;;;;;;;34.70;19.80;;;;;;;5.74;67.85;99636.72;5049566;28;20229;-67
2021/04/05 03:25:36;;;;;;;39.27;18.37;;;;;;;5.76;68.07;99627.75;5053453;28;20201;-69
2021/04/05 03:28:02;;;;;;;33.50;17.87;;;;;;;5.76;67.96;99613.69;5052472;28;20252;-66
2021/04/05 03:30:32;;;;;;;33.50;16.77;;;;;;;5.79;67.78;99606.44;5055946;28;20197;-66
2021/04/05 03:33:04;;;;;;;30.53;18.00;;;;;;;5.82;68.21;99610.69;5052320;28;20222;-66
2021/04/05 03:35:34;;;;;;;32.63;18.50;;;;;;;5.81;68.03;99603.72;5053766;28;20209;-66
2021/04/05 03:38:01;;;;;;;31.50;17.40;;;;;;;5.83;68.02;99597.41;5056973;28;20209;-66
2021/04/05 03:40:29;;;;;;;31.93;18.10;;;;;;;5.84;68.13;99590.31;5053019;28;20197;-66
2021/04/05 03:43:04;;;;;;;35.60;19.27;;;;;;;5.87;67.91;99591.00;5051993;28;20267;-66
2021/04/05 03:45:37;;;;;;;32.90;18.37;;;;;;;5.90;68.20;99590.00;5053451;28;20208;-66
2021/04/05 03:48:09;;;;;;;31.20;15.47;;;;;;;5.92;67.71;99582.78;5052535;28;20288;-67
2021/04/05 03:50:40;;;;;;;32.27;19.37;;;;;;;5.93;67.98;99571.28;5052771;28;20205;-66
2021/04/05 03:53:15;;;;;;;36.03;18.80;;;;;;;5.98;67.82;99563.06;5052491;28;20312;-66
2021/04/05 03:55:44;;;;;;;36.57;19.03;;;;;;;6.00;68.04;99545.34;5052047;28;20213;-66
2021/04/05 03:58:12;;;;;;;33.97;20.13;;;;;;;6.02;68.03;99540.81;5055913;28;20198;-66
2021/04/05 04:00:42;;;;;;;35.77;19.93;;;;;;;6.06;68.07;99535.25;5060275;28;20208;-66
2021/04/05 04:03:12;;;;;;;36.57;19.37;;;;;;;6.07;68.21;99536.94;5052499;28;20229;-66
2021/04/05 04:05:41;;;;;;;33.13;17.43;;;;;;;6.12;68.39;99529.53;5052409;28;20239;-66
2021/04/05 04:08:16;;;;;;;34.47;20.13;;;;;;;6.14;68.16;99509.16;5052807;28;20233;-66
2021/04/05 04:10:47;;;;;;;33.87;20.37;;;;;;;6.17;68.24;99514.25;5051896;28;20205;-66
2021/04/05 04:13:17;;;;;;;39.47;21.43;;;;;;;6.19;68.43;99506.22;5052008;28;20225;-66
2021/04/05 04:15:47;;;;;;;37.63;20.57;;;;;;;6.20;68.42;99495.56;5051943;28;20216;-66
2021/04/05 04:18:16;;;;;;;34.83;19.57;;;;;;;6.20;68.36;99487.63;5052202;28;20209;-66
2021/04/05 04:20:42;;;;;;;41.00;21.97;;;;;;;6.22;68.24;99484.88;5051720;28;20263;-66
2021/04/05 04:23:11;;;;;;;29.90;14.90;;;;;;;6.24;68.50;99481.22;5051799;28;20225;-65
2021/04/05 04:25:37;;;;;;;40.43;21.03;;;;;;;6.26;68.28;99481.13;5051762;28;20216;-68
2021/04/05 04:28:05;;;;;;;37.03;19.87;;;;;;;6.26;68.44;99467.88;5052049;28;20602;-66
2021/04/05 04:30:34;;;;;;;34.93;19.67;;;;;;;6.26;68.32;99466.09;5051846;28;20659;-66
2021/04/05 04:33:02;;;;;;;40.57;20.23;;;;;;;6.27;68.48;99456.34;5051282;28;20222;-66
2021/04/05 04:35:29;;;;;;;30.60;19.07;;;;;;;6.27;68.38;99457.19;5049621;28;20205;-66
2021/04/05 04:37:55;;;;;;;29.43;19.33;;;;;;;6.30;68.45;99457.94;5055446;28;20197;-66
2021/04/05 04:40:23;;;;;;;36.17;21.13;;;;;;;6.29;68.59;99446.50;5053492;28;20205;-65
2021/04/05 04:42:49;;;;;;;33.90;17.73;;;;;;;6.31;68.80;99464.94;5048776;28;20225;-66
2021/04/05 04:45:17;;;;;;;35.77;19.83;;;;;;;6.32;68.63;99443.69;5055311;28;20225;-66
2021/04/05 04:47:44;;;;;;;34.50;20.90;;;;;;;6.32;68.61;99443.69;5051631;28;20595;-66
2021/04/05 04:50:13;;;;;;;29.00;16.10;;;;;;;6.35;68.60;99435.53;5061561;28;20211;-66
2021/04/05 04:52:39;;;;;;;34.77;20.00;;;;;;;6.34;68.50;99433.84;5051482;28;20222;-65
2021/04/05 04:55:07;;;;;;;39.53;21.70;;;;;;;6.33;68.49;99437.44;5056231;28;20212;-66
2021/04/05 04:57:33;;;;;;;32.50;20.60;;;;;;;6.34;68.58;99427.72;5052083;28;20202;-65
2021/04/05 04:59:59;;;;;;;39.10;21.13;;;;;;;6.34;68.56;99425.91;5051760;28;20293;-65
2021/04/05 05:02:26;;;;;;;32.63;18.70;;;;;;;6.36;68.27;99424.03;5049852;28;20226;-65
2021/04/05 05:04:54;;;;;;;37.50;20.37;;;;;;;6.37;68.69;99422.22;5049091;28;20658;-66
2021/04/05 05:07:22;;;;;;;36.57;20.70;;;;;;;6.37;68.82;99412.50;5051677;28;20826;-66
2021/04/05 05:09:48;;;;;;;35.43;19.60;;;;;;;6.38;68.49;99400.13;5051365;28;20263;-65
2021/04/05 05:12:15;;;;;;;31.87;18.17;;;;;;;6.38;68.57;99403.63;5050480;28;20282;-66
2021/04/05 05:14:42;;;;;;;32.30;21.53;;;;;;;6.38;68.56;99402.78;5051292;28;20682;-66
2021/04/05 05:17:08;;;;;;;37.30;20.73;;;;;;;6.38;68.60;99389.56;5050644;28;20201;-66
2021/04/05 05:19:36;;;;;;;35.27;20.43;;;;;;;6.38;68.69;99398.34;5050703;28;20197;-66
2021/04/05 05:22:05;;;;;;;30.17;17.57;;;;;;;6.40;68.77;99385.00;5057822;28;20206;-65
2021/04/05 05:24:32;;;;;;;35.57;20.23;;;;;;;6.40;68.54;99369.16;5050767;28;20229;-66
2021/04/05 05:26:59;;;;;;;33.60;21.37;;;;;;;6.42;68.67;99377.81;5051328;28;20198;-66
2021/04/05 05:29:27;;;;;;;39.23;20.90;;;;;;;6.42;69.01;99385.75;5050672;28;20201;-66
2021/04/05 05:31:53;;;;;;;37.63;20.33;;;;;;;6.42;68.85;99375.19;5050443;28;20582;-66
2021/04/05 05:34:21;;;;;;;31.33;18.47;;;;;;;6.44;68.57;99386.50;5050667;28;20304;-66
2021/04/05 05:36:48;;;;;;;33.97;19.37;;;;;;;6.44;68.96;99386.50;5050840;28;20228;-66
2021/04/05 05:39:17;;;;;;;34.50;20.20;;;;;;;6.45;68.97;99359.94;5050165;28;20209;-67
2021/04/05 05:41:54;;;;;;;32.70;20.87;;;;;;;6.44;69.33;99379.44;5050066;28;20671;-67
2021/04/05 05:44:26;;;;;;;34.43;19.97;;;;;;;6.46;69.38;99360.78;5049928;28;20225;-65
2021/04/05 05:47:03;;;;;;;33.07;19.90;;;;;;;6.45;69.41;99375.81;5051002;28;20409;-66
2021/04/05 05:49:35;;;;;;;32.63;19.27;;;;;;;6.45;69.94;99367.06;5049604;28;20197;-66
2021/04/05 05:52:24;;;;;;;34.47;20.93;;;;;;;6.44;70.09;99360.91;5050285;28;20198;-66
2021/04/05 05:55:02;;;;;;;31.77;18.23;;;;;;;6.45;70.37;99354.66;5046619;28;20205;-67
2021/04/05 05:57:35;;;;;;;32.13;20.90;;;;;;;6.43;70.76;99348.63;5049733;28;20205;-67
2021/04/05 06:00:06;;;;;;;33.13;20.03;;;;;;;6.42;70.69;99335.50;5049184;28;20202;-67
2021/04/05 06:02:48;;;;;;;37.63;19.40;;;;;;;6.40;71.04;99332.13;5047068;28;20243;-67
2021/04/05 06:05:28;;;;;;;27.50;18.37;;;;;;;6.37;71.35;99342.91;5047940;28;20206;-69
2021/04/05 06:08:16;;;;;;;33.80;20.33;;;;;;;6.35;71.87;99331.56;5048674;28;20212;-68
2021/04/05 06:10:51;;;;;;;28.57;18.70;;;;;;;6.32;71.96;99315.91;5050746;28;20205;-68
2021/04/05 06:13:24;;;;;;;24.87;17.47;;;;;;;6.30;72.47;99313.38;5049415;28;20221;-69
2021/04/05 06:15:57;;;;;;;28.77;18.57;;;;;;;6.26;72.67;99307.47;5049803;28;20254;-68
2021/04/05 06:18:29;;;;;;;32.90;19.60;;;;;;;6.24;72.88;99311.16;5051411;28;20216;-69
2021/04/05 06:21:04;;;;;;;32.47;17.87;;;;;;;6.21;73.32;99312.19;5047852;28;20551;-71
2021/04/05 06:23:51;;;;;;;28.87;17.17;;;;;;;6.22;73.44;99307.75;5050768;28;20229;-67
2021/04/05 06:26:22;;;;;;;30.60;19.23;;;;;;;6.18;73.83;99304.47;5051063;28;20202;-68
2021/04/05 06:28:57;;;;;;;28.33;19.07;;;;;;;6.16;74.00;99303.72;5047904;28;20205;-68
2021/04/05 06:31:43;;;;;;;27.57;18.77;;;;;;;6.15;74.03;99309.94;5049591;28;20270;-70
2021/04/05 06:34:23;;;;;;;32.77;19.43;;;;;;;6.14;74.53;99300.31;5053260;28;20221;-69
2021/04/05 06:37:05;;;;;;;26.77;18.53;;;;;;;6.15;74.57;99301.19;5044432;28;20205;-69
2021/04/05 06:39:35;;;;;;;30.60;18.50;;;;;;;6.13;74.69;99292.50;5051008;28;20671;-70
2021/04/05 06:42:47;;;;;;;29.03;16.30;;;;;;;6.13;75.14;99281.91;5050819;28;20599;-70
2021/04/05 06:45:27;;;;;;;27.00;15.53;;;;;;;6.12;75.40;99283.72;5039957;28;20687;-70
2021/04/05 06:48:02;;;;;;;22.67;14.20;;;;;;;6.09;74.80;99286.56;5047144;28;20209;-70
2021/04/05 06:50:36;;;;;;;23.73;15.23;;;;;;;6.08;75.37;99276.97;5044846;28;20196;-69
2021/04/05 06:53:29;;;;;;;21.37;14.13;;;;;;;6.08;75.83;99276.13;5051017;28;20225;-70
2021/04/05 06:55:58;;;;;;;26.33;17.53;;;;;;;6.06;75.82;99270.94;5047618;28;20194;-70
2021/04/05 06:58:55;;;;;;;23.20;15.30;;;;;;;6.03;76.04;99260.56;5048876;28;20201;-68
2021/04/05 07:01:36;;;;;;;19.63;14.37;;;;;;;6.04;76.14;99256.97;5047638;28;20577;-69
2021/04/05 07:04:35;;;;;;;22.87;15.43;;;;;;;6.03;76.18;99251.78;5051736;28;20229;-69
2021/04/05 07:07:11;;;;;;;22.27;14.90;;;;;;;6.01;76.74;99253.69;5051617;28;20201;-70
2021/04/05 07:09:45;;;;;;;19.93;14.87;;;;;;;6.00;76.44;99258.13;5051682;28;20197;-70
2021/04/05 07:12:50;;;;;;;24.57;15.20;;;;;;;6.00;76.74;99254.63;5052614;28;20206;-70
2021/04/05 07:15:23;;;;;;;21.33;15.57;;;;;;;5.98;76.62;99246.78;5051284;28;20284;-69
2021/04/05 07:18:03;;;;;;;21.33;14.90;;;;;;;5.99;77.04;99245.00;5053037;28;20208;-70
2021/04/05 07:20:37;;;;;;;26.50;16.77;;;;;;;5.98;76.97;99244.16;5054912;28;20204;-69
2021/04/05 07:23:11;;;;;;;23.07;15.83;;;;;;;5.98;77.42;99252.09;5052832;28;20236;-69
2021/04/05 07:25:49;;;;;;;20.00;15.53;;;;;;;5.98;77.30;99261.81;5051133;28;20197;-68
2021/04/05 07:28:22;;;;;;;23.87;15.30;;;;;;;5.98;77.13;99262.66;5050869;28;20201;-69
2021/04/05 07:30:58;;;;;;;22.40;14.50;;;;;;;5.99;77.41;99269.63;5052177;28;20698;-69
2021/04/05 07:33:34;;;;;;;21.17;15.57;;;;;;;5.98;77.64;99288.22;5052458;28;20240;-68
2021/04/05 07:36:18;;;;;;;22.23;14.47;;;;;;;5.97;77.74;99321.75;5052800;28;20670;-68
2021/04/05 07:38:53;;;;;;;4.87;3.57;;;;;;;5.93;77.47;99360.72;5051791;28;20212;-69
2021/04/05 07:41:26;;;;;;;4.40;2.77;;;;;;;5.71;76.73;99356.91;5051350;28;20216;-69
2021/04/05 07:44:05;;;;;;;3.27;1.90;;;;;;;5.43;76.26;99340.16;5049267;28;20336;-69
2021/04/05 07:46:36;;;;;;;1.60;0.83;;;;;;;5.19;76.52;99353.13;5051400;28;20682;-69
2021/04/05 07:49:11;;;;;;;0.80;0.50;;;;;;;5.01;76.22;99359.53;5052494;28;20573;-69
2021/04/05 07:51:49;;;;;;;0.67;0.40;;;;;;;4.83;76.43;99368.56;5050886;28;20212;-69
2021/04/05 07:54:17;;;;;;;0.50;0.30;;;;;;;4.71;76.18;99382.44;5052101;28;20589;-68
2021/04/05 07:56:53;;;;;;;0.70;0.40;;;;;;;4.57;75.74;99378.00;5051395;28;20213;-69
2021/04/05 07:59:31;;;;;;;1.83;0.40;;;;;;;4.46;76.29;99396.25;5048742;28;20201;-69
2021/04/05 08:02:01;;;;;;;1.77;0.50;;;;;;;4.39;76.24;99401.03;5049580;28;20258;-69
2021/04/05 08:04:35;;;;;;;0.70;0.40;;;;;;;4.32;76.92;99407.56;5051422;28;20237;-69
2021/04/05 08:07:09;;;;;;;0.57;0.50;;;;;;;4.29;77.38;99406.91;5050322;28;20217;-69
2021/04/05 08:09:43;;;;;;;1.47;0.50;;;;;;;4.27;76.90;99401.72;5048169;28;20201;-70
2021/04/05 08:12:21;;;;;;;1.27;0.57;;;;;;;4.27;77.18;99409.63;5050290;28;20204;-71
2021/04/05 08:15:02;;;;;;;1.27;0.30;;;;;;;4.26;77.49;99417.63;5051621;28;20209;-70
2021/04/05 08:17:51;;;;;;;0.47;0.47;;;;;;;4.23;77.65;99417.81;5050248;28;20262;-69
2021/04/05 08:20:24;;;;;;;1.63;0.30;;;;;;;4.19;77.88;99419.75;5050507;28;20201;-69
2021/04/05 08:22:56;;;;;;;0.77;0.30;;;;;;;4.15;77.54;99426.13;5048552;28;20224;-70
2021/04/05 08:25:31;;;;;;;0.83;0.33;;;;;;;4.11;77.36;99437.81;5049942;28;20201;-68
2021/04/05 08:28:10;;;;;;;1.67;0.30;;;;;;;4.06;77.93;99438.06;5051268;28;20685;-69
2021/04/05 08:30:46;;;;;;;0.87;0.37;;;;;;;4.02;78.04;99436.50;5050854;28;20208;-68
2021/04/05 08:33:27;;;;;;;1.87;0.40;;;;;;;3.96;77.45;99436.00;5047511;28;20229;-69
2021/04/05 08:36:06;;;;;;;0.93;0.30;;;;;;;3.86;77.61;99434.81;5048337;28;20263;-70
2021/04/05 08:38:38;;;;;;;0.40;0.20;;;;;;;3.79;77.21;99434.28;5049288;28;20620;-70
2021/04/05 08:41:12;;;;;;;2.97;1.17;;;;;;;3.75;77.91;99446.81;5050404;28;20300;-69
2021/04/05 08:43:47;;;;;;;4.70;0.60;;;;;;;3.73;77.62;99453.94;5049607;28;20229;-69
2021/04/05 08:46:18;;;;;;;1.07;0.67;;;;;;;3.73;77.08;99456.56;5044967;28;20205;-69
2021/04/05 08:48:49;;;;;;;2.20;0.60;;;;;;;3.75;77.03;99464.38;5049975;28;20201;-69
2021/04/05 08:51:19;;;;;;;3.23;1.03;;;;;;;3.77;76.79;99459.84;5050048;28;20263;-70
2021/04/05 08:53:51;;;;;;;1.97;1.00;;;;;;;3.79;77.06;99465.91;5050318;28;20221;-70
2021/04/05 08:56:18;;;;;;;3.17;0.53;;;;;;;3.83;77.61;99464.81;5049030;28;20202;-68
2021/04/05 08:58:50;;;;;;;3.93;1.00;;;;;;;3.87;77.04;99449.69;5049927;28;20210;-70
2021/04/05 09:01:22;;;;;;;3.17;0.70;;;;;;;3.91;76.74;99464.41;5049527;28;20251;-69
2021/04/05 09:03:49;;;;;;;1.17;0.60;;;;;;;3.95;76.98;99477.28;5048532;28;20236;-67
2021/04/05 09:06:30;;;;;;;2.00;0.73;;;;;;;3.98;77.13;99476.28;5050004;28;20198;-71
2021/04/05 09:08:57;;;;;;;10.53;6.77;;;;;;;4.00;76.39;99472.63;5052824;28;21357;-68
2021/04/05 09:11:25;;;;;;;4.07;1.10;;;;;;;4.05;76.23;99461.84;5049395;28;20283;-69
2021/04/05 09:13:58;;;;;;;1.03;0.40;;;;;;;4.09;76.52;99463.38;5050369;28;20226;-71
2021/04/05 09:16:55;;;;;;;2.40;0.80;;;;;;;4.10;75.99;99476.47;5047722;28;20670;-69
2021/04/05 09:20:11;;;;;;;0.87;0.60;;;;;;;4.15;76.42;99482.31;5049542;28;20347;-69
2021/04/05 09:23:03;;;;;;;5.07;3.00;;;;;;;4.17;75.63;99477.81;5048547;28;20784;-70
2021/04/05 09:25:49;;;;;;;3.97;3.57;;;;;;;4.19;76.26;99485.63;5050635;28;20670;-69
2021/04/05 09:28:31;;;;;;;1.30;1.10;;;;;;;4.20;75.77;99492.59;5049462;28;20690;-68
2021/04/05 09:31:20;;;;;;;2.70;1.10;;;;;;;4.19;75.13;99489.13;5049776;28;20216;-69
2021/04/05 09:34:07;;;;;;;1.33;0.80;;;;;;;4.17;75.40;99480.44;5047591;28;20217;-66
2021/04/05 09:36:54;;;;;;;4.10;1.00;;;;;;;4.21;74.49;99485.56;5048946;28;20209;-68
2021/04/05 09:39:30;;;;;;;2.47;1.13;;;;;;;4.25;75.20;99492.38;5048954;28;20569;-69
2021/04/05 09:42:19;;;;;;;4.53;1.00;;;;;;;4.31;74.92;99494.63;5048015;28;20819;-68
2021/04/05 09:45:08;;;;;;;4.07;1.00;;;;;;;4.36;74.15;99492.59;5047031;28;20728;-68
2021/04/05 09:48:00;;;;;;;3.07;1.40;;;;;;;4.41;73.61;99490.56;5049036;28;20213;-67
2021/04/05 09:50:38;;;;;;;8.70;3.73;;;;;;;4.43;73.95;99502.72;5046654;28;20217;-68
2021/04/05 09:53:35;;;;;;;4.97;1.10;;;;;;;4.48;73.72;99507.72;5047681;28;20225;-67
2021/04/05 09:56:07;;;;;;;2.60;1.10;;;;;;;4.53;72.98;99500.41;5047018;28;20239;-68
2021/04/05 09:58:38;;;;;;;3.37;0.87;;;;;;;4.59;73.35;99505.34;5047450;28;20213;-69
2021/04/05 10:01:08;;;;;;;3.93;1.10;;;;;;;4.64;72.96;99505.09;5048909;28;20205;-67
2021/04/05 10:03:40;;;;;;;11.23;1.40;;;;;;;4.65;71.63;99505.00;5046637;28;20278;-70
2021/04/05 10:06:08;;;;;;;5.77;1.60;;;;;;;4.65;72.28;99502.34;5047250;28;20206;-69
2021/04/05 10:08:38;;;;;;;5.10;0.80;;;;;;;4.68;71.49;99493.41;5047798;28;20208;-67
2021/04/05 10:11:05;;;;;;;3.87;0.93;;;;;;;4.70;71.63;99492.38;5048055;28;20217;-67
2021/04/05 10:13:34;;;;;;;3.47;1.00;;;;;;;4.76;71.20;99505.22;5047783;28;20225;-69
2021/04/05 10:16:01;;;;;;;5.20;1.00;;;;;;;4.79;71.20;99522.66;5046497;28;20205;-68
2021/04/05 10:18:27;;;;;;;1.57;0.50;;;;;;;4.76;70.20;99528.09;5047668;28;20749;-68
2021/04/05 10:20:54;;;;;;;1.53;0.40;;;;;;;4.64;70.15;99537.56;5047313;28;20209;-70
2021/04/05 10:23:23;;;;;;;2.47;0.80;;;;;;;4.49;69.60;99543.69;5047890;28;20240;-67
2021/04/05 10:25:53;;;;;;;0.87;0.40;;;;;;;4.32;69.80;99539.34;5046612;28;20202;-67
2021/04/05 10:28:19;;;;;;;0.43;0.20;;;;;;;4.17;70.06;99540.19;5046811;28;20597;-68
2021/04/05 10:30:50;;;;;;;1.90;0.70;;;;;;;4.02;69.40;99544.53;5046831;28;20202;-68
2021/04/05 10:33:22;;;;;;;2.10;0.50;;;;;;;3.86;69.43;99541.03;5047755;28;20225;-69
2021/04/05 10:35:51;;;;;;;1.17;0.50;;;;;;;3.77;69.27;99541.50;5048466;28;20342;-67
2021/04/05 10:38:20;;;;;;;2.13;0.60;;;;;;;3.75;70.23;99535.50;5050654;28;20210;-68
2021/04/05 10:40:49;;;;;;;2.30;0.60;;;;;;;3.78;70.52;99537.94;5051969;28;20205;-67
2021/04/05 10:43:21;;;;;;;1.53;0.50;;;;;;;3.84;70.89;99564.81;5051670;28;20338;-68
2021/04/05 10:45:56;;;;;;;1.73;0.30;;;;;;;3.80;70.01;99594.00;5049508;28;20616;-68
2021/04/05 10:48:28;;;;;;;0.73;0.30;;;;;;;3.56;69.34;99606.69;5052197;28;20201;-69
2021/04/05 10:50:59;;;;;;;1.20;0.30;;;;;;;3.36;70.10;99605.06;5052545;28;20600;-68
2021/04/05 10:53:27;;;;;;;0.33;0.10;;;;;;;3.18;69.33;99616.50;5051550;28;20217;-69
2021/04/05 10:56:00;;;;;;;4.20;0.40;;;;;;;3.00;70.14;99617.41;5051474;28;20221;-69
2021/04/05 10:58:31;;;;;;;0.73;0.40;;;;;;;2.88;70.18;99629.34;5052280;28;20224;-69
2021/04/05 11:01:01;;;;;;;1.73;0.50;;;;;;;2.84;70.93;99642.75;5051532;28;20214;-70
2021/04/05 11:03:28;;;;;;;0.87;0.77;;;;;;;2.82;71.18;99650.72;5053149;28;20229;-69
2021/04/05 11:05:58;;;;;;;3.83;0.77;;;;;;;2.79;71.46;99651.69;5053539;28;20229;-69
2021/04/05 11:08:27;;;;;;;1.73;0.43;;;;;;;2.73;72.15;99654.63;5053394;28;20201;-68
2021/04/05 11:11:01;;;;;;;2.20;0.40;;;;;;;2.69;72.03;99646.94;5053589;28;20254;-71
2021/04/05 11:13:28;;;;;;;1.90;0.50;;;;;;;2.67;72.60;99643.56;5053248;28;20224;-70
2021/04/05 11:15:57;;;;;;;1.87;0.60;;;;;;;2.64;72.59;99656.84;5054620;28;20201;-70
2021/04/05 11:18:25;;;;;;;3.13;0.70;;;;;;;2.61;72.32;99646.47;5053582;28;20206;-71
2021/04/05 11:20:56;;;;;;;2.00;0.73;;;;;;;2.60;71.94;99645.59;5055911;28;20202;-69
2021/04/05 11:23:24;;;;;;;2.00;0.80;;;;;;;2.63;71.71;99645.47;5054817;28;20256;-69
2021/04/05 11:25:52;;;;;;;2.87;0.67;;;;;;;2.68;72.07;99647.88;5053939;28;20204;-70
2021/04/05 11:28:28;;;;;;;1.13;0.60;;;;;;;2.74;71.79;99651.06;5054020;28;20201;-70
2021/04/05 11:30:59;;;;;;;5.07;0.80;;;;;;;2.84;71.63;99658.53;5056388;28;20217;-71
2021/04/05 11:33:28;;;;;;;6.37;1.27;;;;;;;2.88;71.28;99647.75;5052406;28;20221;-69
2021/04/05 11:35:56;;;;;;;5.27;1.50;;;;;;;2.94;70.21;99663.25;5053461;28;20204;-69
2021/04/05 11:38:23;;;;;;;3.87;0.90;;;;;;;3.02;70.06;99652.38;5053083;28;20205;-68
2021/04/05 11:40:55;;;;;;;3.07;1.00;;;;;;;3.10;69.85;99644.97;5052095;28;20229;-68
2021/04/05 11:43:26;;;;;;;2.67;1.00;;;;;;;3.20;70.12;99651.50;5052280;28;20638;-68
2021/04/05 11:45:54;;;;;;;3.03;0.80;;;;;;;3.28;69.97;99659.84;5052927;28;20705;-69
2021/04/05 11:48:23;;;;;;;4.67;0.67;;;;;;;3.33;68.87;99655.22;5053122;28;20208;-68
2021/04/05 11:50:50;;;;;;;4.13;1.00;;;;;;;3.38;67.76;99666.38;5051647;28;20210;-73